Domov               UVHVVR             MKGP            O straneh              
ZDRAVSTVENO VARSTVO RASTLIN
  MREŽA AGROMET. POSTAJ
 ► PROGNOSTIČNA OBVESTILA
AGROMETEOROLOŠKI PODATKI -
ARSO
OBVLADOVANJE TVEGANJ ZARADI
NEUGODNIH VREMENSKIH RAZMER
  ► NARAVNE NESREČE
  ► SUŠA/MOČA
  ► NAMAKANJE
  ► ŽLED (gozdarstvo)
KARTOGRAFSKI PRIKAZI
SPLETNE POVEZAVE
PROJEKTI IN PUBLIKACIJE

AGROMETEOROLOŠKA MREŽA: VREMENSKE POSTAJE IN FENOLOŠKA OPAZOVANJA

Pregled podatkov za lokacijo Drašiči, meteorološka postaja 38741

Pregled senzorjev na lokaciji

ID Ime Zadnja
vrednost
Datum
zadnje
spremembe
Tip
senzorja
1865 Temperatura 2 m ( °C) 7,99 °C 17.10.2017 07:30 50YA
1866 Relativna vlaga 2 m (% RH) 94,53 % RH 17.10.2017 07:29 50YA
1867 Omočenost lista (U) 10 U 17.10.2017 07:29 A730WET
1868 Padavine 0.2 mm (mm) 0 mm 17.10.2017 07:30 Rain-O-Matic

Pregled podatkov zadnjih 24 ur

Zap.
št.
Datum in čas Drašiči
Omočenost
lista
Padavine
0.2
mm
Relativna
vlaga
2
m
Temperatura
2
m
0 17.10.2017 06:30 10 0 94,53 7,99
1 17.10.2017 06:00 10 0 94,68 8,23
2 17.10.2017 05:30 10 0 94,65 7,77
3 17.10.2017 05:00 10 0 94,33 8,25
4 17.10.2017 04:30 10 0 94,31 8,99
5 17.10.2017 04:00 10 0 94,51 9,11
6 17.10.2017 03:30 10 0 94,09 9,11
7 17.10.2017 03:00 10 0 93,85 9,4
8 17.10.2017 02:30 10 0 93,7 9,72
9 17.10.2017 02:00 10 0 93,24 9,94
10 17.10.2017 01:30 10 0 93,09 10,16
11 17.10.2017 01:00 10 0 92,65 10,33
12 17.10.2017 00:30 10 0 91,82 10,35
13 17.10.2017 00:00 10 0 91,01 10,82
14 16.10.2017 23:30 10 0 90,7 11,04
15 16.10.2017 23:00 10 0 90,38 11,16
16 16.10.2017 22:30 10 0 89,65 11,31
17 16.10.2017 22:00 10 0 88,82 11,62
18 16.10.2017 21:30 10 0 88,33 11,99
19 16.10.2017 21:00 10 0 88,5 12,06
20 16.10.2017 20:30 10 0 87,42 12,45
21 16.10.2017 20:00 10 0 86,08 12,94
22 16.10.2017 19:30 8 0 85,2 13,36
23 16.10.2017 19:00 5 0 83,98 13,89
24 16.10.2017 18:30 2 0 81,05 14,65
25 16.10.2017 18:00 1 0 80,07 15,26
26 16.10.2017 17:30 0 0 72,63 16,65
27 16.10.2017 17:00 0 0 59,12 19,34
28 16.10.2017 16:30 0 0 53,33 21,17
29 16.10.2017 16:00 0 0 52,45 22,37
30 16.10.2017 15:30 0 0 51,18 23,05
31 16.10.2017 15:00 0 0 51,75 23,52
32 16.10.2017 14:30 0 0 46,45 24,59
33 16.10.2017 14:00 0 0 44,18 24,74
34 16.10.2017 13:30 0 0 46,98 24,42
35 16.10.2017 13:00 0 0 47,84 24,4
36 16.10.2017 12:30 0 0 51,89 23,22
37 16.10.2017 12:00 0 0 57,24 22,05
38 16.10.2017 11:30 0 0 58,9 21,12
39 16.10.2017 11:00 0 0 63,76 19,71
40 16.10.2017 10:30 3 0 68,5 17,88
41 16.10.2017 10:00 10 0 75,07 16,02
42 16.10.2017 09:30 10 0 81,59 13,89
43 16.10.2017 09:00 10 0 88,11 11,84
44 16.10.2017 08:30 10 0 93,7 9,82
45 16.10.2017 08:00 10 0 94,21 8,47
© 2011 Ministrstvo za kmetijstvo, gozdarstvo in prehrano. Vse pravice pridržane.